createdAt,value
2018-09-13T00:01:02.515Z,1.42
2018-09-13T00:06:05.798Z,1.60
2018-09-13T00:11:09.099Z,1.05
2018-09-13T00:16:12.382Z,1.77
2018-09-13T00:21:15.898Z,1.50
2018-09-13T00:26:19.170Z,0.90
2018-09-13T00:31:22.463Z,2.62
2018-09-13T00:36:25.745Z,1.42
2018-09-13T00:41:29.073Z,4.28
2018-09-13T00:46:32.459Z,1.17
2018-09-13T00:51:35.734Z,1.50
2018-09-13T00:56:39.030Z,0.90
2018-09-13T01:01:42.310Z,1.77
2018-09-13T01:06:45.590Z,2.02
2018-09-13T01:11:48.862Z,1.00
2018-09-13T01:16:52.143Z,2.90
2018-09-13T01:21:55.430Z,1.65
2018-09-13T01:26:58.709Z,2.00
2018-09-13T01:32:01.999Z,3.80
2018-09-13T01:37:05.279Z,9.13
2018-09-13T01:42:08.555Z,0.68
2018-09-13T01:47:11.858Z,1.40
2018-09-13T01:52:15.140Z,1.92
2018-09-13T01:57:18.417Z,2.15
2018-09-13T02:02:21.718Z,1.10
2018-09-13T02:07:24.989Z,1.45
2018-09-13T02:12:28.274Z,2.72
2018-09-13T02:17:31.546Z,0.95
2018-09-13T02:22:34.818Z,0.70
2018-09-13T02:27:38.114Z,1.07
2018-09-13T02:32:42.055Z,0.98
2018-09-13T02:37:45.386Z,1.50
2018-09-13T02:42:48.676Z,0.85
2018-09-13T02:47:51.958Z,2.60
2018-09-13T02:52:55.235Z,1.87
2018-09-13T02:57:58.518Z,2.22
2018-09-13T03:03:01.807Z,1.87
2018-09-13T03:08:05.120Z,1.77
2018-09-13T03:13:08.722Z,1.17
2018-09-13T03:18:12.002Z,2.37
2018-09-13T03:23:15.342Z,1.17
2018-09-13T03:28:18.630Z,1.00
2018-09-13T03:33:21.905Z,1.42
2018-09-13T03:38:25.194Z,0.85
2018-09-13T03:43:28.687Z,1.98
2018-09-13T03:48:31.977Z,2.20
2018-09-13T03:53:35.257Z,1.35
2018-09-13T03:58:38.614Z,1.30
2018-09-13T04:03:41.918Z,5.83
2018-09-13T04:08:45.219Z,4.58
2018-09-13T04:13:48.903Z,2.10
2018-09-13T04:18:52.349Z,2.25
2018-09-13T04:23:55.573Z,3.47
2018-09-13T04:28:58.855Z,1.22
2018-09-13T04:34:02.135Z,3.75
2018-09-13T04:39:07.770Z,4.37
2018-09-13T04:44:11.045Z,2.05
2018-09-13T04:49:14.443Z,1.52
2018-09-13T04:54:17.739Z,1.35
2018-09-13T04:59:21.034Z,1.20
2018-09-13T05:04:24.318Z,3.72
2018-09-13T05:09:27.602Z,2.95
2018-09-13T05:14:30.898Z,1.40
2018-09-13T05:19:34.166Z,2.95
2018-09-13T05:24:38.146Z,1.57
2018-09-13T05:29:41.651Z,4.42
2018-09-13T05:34:44.944Z,3.90
2018-09-13T05:39:48.310Z,5.33
2018-09-13T05:44:51.598Z,2.45
2018-09-13T05:49:54.878Z,1.25
2018-09-13T05:54:58.158Z,2.85
2018-09-13T06:00:01.447Z,3.30
2018-09-13T06:05:05.474Z,1.30
2018-09-13T06:10:08.773Z,2.72
2018-09-13T06:15:12.102Z,2.27
2018-09-13T06:20:15.382Z,1.63
2018-09-13T06:25:18.667Z,4.12
2018-09-13T06:30:21.946Z,3.10
2018-09-13T06:35:25.219Z,2.87
2018-09-13T06:40:28.497Z,4.15
2018-09-13T06:45:31.767Z,4.85
2018-09-13T06:50:35.044Z,4.15
2018-09-13T06:55:38.319Z,3.05
2018-09-13T07:00:41.594Z,7.12
2018-09-13T07:05:44.870Z,5.92
2018-09-13T07:10:48.193Z,6.42
2018-09-13T07:15:51.581Z,6.37
2018-09-13T07:20:54.860Z,7.20
2018-09-13T07:25:58.142Z,5.47
2018-09-13T07:31:01.505Z,9.23
2018-09-13T07:36:04.734Z,4.45
2018-09-13T07:41:08.014Z,4.63
2018-09-13T07:46:11.386Z,7.13
2018-09-13T07:51:14.711Z,3.93
2018-09-13T07:56:18.058Z,10.70
2018-09-13T08:01:21.337Z,3.97
2018-09-13T08:06:24.619Z,6.45
2018-09-13T08:11:28.086Z,2.80
2018-09-13T08:16:31.373Z,3.35
2018-09-13T08:21:34.696Z,4.42
2018-09-13T08:26:37.966Z,5.50
2018-09-13T08:31:41.255Z,3.55
2018-09-13T08:36:44.531Z,2.67
2018-09-13T08:41:47.802Z,3.40
2018-09-13T08:46:51.086Z,3.45
2018-09-13T08:51:54.424Z,5.05
2018-09-13T08:56:57.673Z,6.62
2018-09-13T09:02:01.070Z,10.15
2018-09-13T09:07:04.361Z,5.35
2018-09-13T09:12:07.661Z,4.25
2018-09-13T09:17:10.951Z,3.52
2018-09-13T09:22:14.234Z,5.95
2018-09-13T09:27:17.655Z,6.83
2018-09-13T09:32:20.932Z,7.37
2018-09-13T09:37:24.271Z,10.25
2018-09-13T09:42:27.562Z,6.78
2018-09-13T09:47:30.842Z,4.95
2018-09-13T09:52:34.122Z,6.83
2018-09-13T09:57:37.415Z,3.98
2018-09-13T10:02:40.703Z,7.47
2018-09-13T10:07:43.974Z,7.12
2018-09-13T10:12:47.271Z,5.55
2018-09-13T10:17:55.847Z,8.18
2018-09-13T10:23:04.406Z,4.47
2018-09-13T10:28:12.973Z,7.12
2018-09-13T10:33:21.618Z,4.20
2018-09-13T10:38:30.377Z,8.08
2018-09-13T10:43:39.015Z,6.70
2018-09-13T10:48:47.770Z,6.05
2018-09-13T10:53:56.216Z,6.45
2018-09-13T10:58:59.590Z,6.28
2018-09-13T11:04:02.923Z,7.92
2018-09-13T11:09:06.787Z,6.40
2018-09-13T11:14:22.806Z,11.30
2018-09-13T11:19:26.135Z,7.03
2018-09-13T11:24:29.520Z,6.20
2018-09-13T11:29:32.778Z,9.45
2018-09-13T11:34:36.123Z,8.65
2018-09-13T11:39:39.456Z,9.98
2018-09-13T11:44:42.818Z,8.20
2018-09-13T11:49:46.142Z,9.33
2018-09-13T11:54:49.457Z,6.45
2018-09-13T11:59:52.789Z,6.97
2018-09-13T12:04:56.163Z,6.87
2018-09-13T12:09:59.555Z,7.20
2018-09-13T12:15:03.138Z,7.55
2018-09-13T12:20:07.109Z,6.03
2018-09-13T12:25:10.406Z,6.05
2018-09-13T12:30:13.726Z,5.23
2018-09-13T12:35:17.048Z,6.00
2018-09-13T12:40:20.366Z,4.60
2018-09-13T12:45:23.678Z,4.83
2018-09-13T12:50:27.017Z,5.80
2018-09-13T12:55:35.626Z,5.03
2018-09-13T13:00:38.959Z,7.33
2018-09-13T13:05:42.258Z,5.37
2018-09-13T13:10:45.614Z,6.37
2018-09-13T13:15:48.919Z,9.75
2018-09-13T13:20:52.239Z,10.93
2018-09-13T13:25:55.553Z,9.95
2018-09-13T13:30:58.854Z,8.85
2018-09-13T13:36:02.153Z,10.18
2018-09-13T13:41:05.546Z,8.68
2018-09-13T13:46:08.851Z,8.53
2018-09-13T13:51:12.206Z,8.65
2018-09-13T13:56:15.511Z,13.22
2018-09-13T14:01:32.638Z,9.28
2018-09-13T14:06:35.971Z,10.90
2018-09-13T14:11:39.446Z,7.00
2018-09-13T14:16:43.703Z,9.50
2018-09-13T14:21:47.074Z,8.05
2018-09-13T14:26:50.453Z,9.10
2018-09-13T14:31:54.007Z,8.48
2018-09-13T14:36:57.318Z,9.85
2018-09-13T14:42:00.635Z,8.00
2018-09-13T14:47:23.305Z,9.90
2018-09-13T14:52:26.631Z,8.23
2018-09-13T14:57:29.949Z,9.18
2018-09-13T15:02:33.250Z,8.18
2018-09-13T15:07:36.558Z,7.05
2018-09-13T15:12:40.305Z,10.43
2018-09-13T15:17:43.617Z,8.85
2018-09-13T15:22:46.934Z,6.70
2018-09-13T15:27:50.254Z,6.03
2018-09-13T15:32:53.566Z,6.03
2018-09-13T15:37:56.919Z,9.45
2018-09-13T15:43:00.235Z,7.08
2018-09-13T15:48:03.546Z,6.22
2018-09-13T15:53:06.864Z,10.10
2018-09-13T15:58:16.093Z,3.62
2018-09-13T16:03:19.391Z,5.42
2018-09-13T16:08:22.748Z,7.80
2018-09-13T16:13:26.117Z,3.98
2018-09-13T16:18:29.429Z,4.60
2018-09-13T16:23:32.742Z,5.22
2018-09-13T16:28:57.979Z,4.08
2018-09-13T17:41:35.682Z,5.70
2018-09-13T17:46:39.788Z,2.30
2018-09-13T17:51:43.117Z,4.95
2018-09-13T17:56:46.406Z,4.62
2018-09-13T18:01:50.182Z,2.58
2018-09-13T18:06:53.586Z,5.40
2018-09-13T18:11:56.871Z,5.67
2018-09-13T18:17:00.193Z,4.37
2018-09-13T18:22:03.514Z,3.60
2018-09-13T19:17:47.515Z,2.85
2018-09-13T19:22:50.970Z,6.53
2018-09-13T19:27:54.331Z,3.95
2018-09-13T19:32:57.786Z,6.37
2018-09-13T19:38:01.007Z,2.10
2018-09-13T19:43:04.311Z,3.02
2018-09-13T19:48:07.603Z,3.98
2018-09-13T19:53:10.895Z,4.53
2018-09-13T19:58:14.195Z,2.72
2018-09-13T20:03:17.479Z,3.60
2018-09-13T20:08:20.780Z,3.25
2018-09-13T20:41:34.598Z,4.22
2018-09-13T20:46:38.634Z,3.02
2018-09-13T20:51:42.672Z,9.58
2018-09-13T20:56:46.313Z,2.47
2018-09-13T21:01:50.298Z,3.72
2018-09-13T21:06:53.877Z,3.60
2018-09-13T21:11:57.474Z,4.83
2018-09-13T21:17:00.840Z,4.85
2018-09-13T21:22:04.898Z,4.33
2018-09-13T21:27:08.217Z,2.62
2018-09-13T21:32:11.519Z,3.62
2018-09-13T21:37:14.799Z,4.53
2018-09-13T21:42:18.114Z,3.50
2018-09-13T21:47:21.591Z,2.70
2018-09-13T21:52:24.925Z,5.27
2018-09-13T21:57:28.206Z,1.98
2018-09-13T22:02:31.494Z,4.10
2018-09-13T22:07:35.212Z,5.17
2018-09-13T22:12:38.638Z,3.27
2018-09-13T22:17:42.118Z,2.58
2018-09-13T22:22:45.456Z,3.85
2018-09-13T22:27:48.738Z,3.77
2018-09-13T22:32:52.074Z,2.27
2018-09-13T22:37:56.347Z,2.33
2018-09-13T22:43:00.355Z,2.58
2018-09-13T22:48:04.581Z,1.98
2018-09-13T22:53:08.756Z,2.37
2018-09-13T22:58:12.785Z,2.00
2018-09-13T23:03:16.091Z,2.85
2018-09-13T23:08:19.378Z,6.92
2018-09-13T23:13:22.874Z,1.77
2018-09-13T23:18:26.202Z,1.77
2018-09-13T23:23:29.482Z,3.75
2018-09-13T23:28:32.758Z,1.10
2018-09-13T23:33:36.042Z,2.05
2018-09-13T23:38:39.323Z,2.90
2018-09-13T23:43:42.634Z,2.05
2018-09-13T23:48:45.930Z,1.42
2018-09-13T23:53:49.207Z,2.22
2018-09-13T23:58:52.486Z,1.37
